sensor_id;sensor_type;location;lat;lon;timestamp;P1;durP1;ratioP1;P2;durP2;ratioP2
16593;SDS011;8410;52.532;13.336;2022-11-25T00:00:19;34.10;;;25.87;;
16593;SDS011;8410;52.532;13.336;2022-11-25T00:02:47;29.47;;;23.57;;
16593;SDS011;8410;52.532;13.336;2022-11-25T00:05:15;33.13;;;23.90;;
16593;SDS011;8410;52.532;13.336;2022-11-25T00:07:42;33.90;;;24.63;;
16593;SDS011;8410;52.532;13.336;2022-11-25T00:10:10;32.17;;;25.47;;
16593;SDS011;8410;52.532;13.336;2022-11-25T00:12:37;29.00;;;24.17;;
16593;SDS011;8410;52.532;13.336;2022-11-25T00:15:05;32.23;;;24.30;;
16593;SDS011;8410;52.532;13.336;2022-11-25T00:17:34;32.77;;;24.30;;
16593;SDS011;8410;52.532;13.336;2022-11-25T00:20:01;33.57;;;26.67;;
16593;SDS011;8410;52.532;13.336;2022-11-25T00:22:31;35.70;;;29.23;;
16593;SDS011;8410;52.532;13.336;2022-11-25T00:24:58;34.93;;;27.27;;
16593;SDS011;8410;52.532;13.336;2022-11-25T00:27:26;33.63;;;25.93;;
16593;SDS011;8410;52.532;13.336;2022-11-25T00:29:53;35.17;;;27.20;;
16593;SDS011;8410;52.532;13.336;2022-11-25T00:32:20;36.43;;;27.87;;
16593;SDS011;8410;52.532;13.336;2022-11-25T00:34:49;34.37;;;27.33;;
16593;SDS011;8410;52.532;13.336;2022-11-25T00:37:17;29.67;;;24.07;;
16593;SDS011;8410;52.532;13.336;2022-11-25T00:39:44;29.40;;;23.07;;
16593;SDS011;8410;52.532;13.336;2022-11-25T00:42:12;31.33;;;27.20;;
16593;SDS011;8410;52.532;13.336;2022-11-25T00:44:57;34.70;;;27.83;;
16593;SDS011;8410;52.532;13.336;2022-11-25T00:47:24;45.70;;;38.37;;
16593;SDS011;8410;52.532;13.336;2022-11-25T00:49:53;31.43;;;26.23;;
16593;SDS011;8410;52.532;13.336;2022-11-25T00:52:22;33.17;;;27.30;;
16593;SDS011;8410;52.532;13.336;2022-11-25T00:54:52;28.57;;;23.17;;
16593;SDS011;8410;52.532;13.336;2022-11-25T00:57:20;28.10;;;25.10;;
16593;SDS011;8410;52.532;13.336;2022-11-25T00:59:49;32.07;;;25.37;;
16593;SDS011;8410;52.532;13.336;2022-11-25T01:02:17;30.20;;;25.33;;
16593;SDS011;8410;52.532;13.336;2022-11-25T01:04:45;29.63;;;24.03;;
16593;SDS011;8410;52.532;13.336;2022-11-25T01:07:14;31.43;;;26.83;;
16593;SDS011;8410;52.532;13.336;2022-11-25T01:09:42;33.53;;;28.47;;
16593;SDS011;8410;52.532;13.336;2022-11-25T01:12:10;31.90;;;25.83;;
16593;SDS011;8410;52.532;13.336;2022-11-25T01:14:37;34.60;;;28.80;;
16593;SDS011;8410;52.532;13.336;2022-11-25T01:17:05;38.07;;;28.43;;
16593;SDS011;8410;52.532;13.336;2022-11-25T01:19:33;33.33;;;27.87;;
16593;SDS011;8410;52.532;13.336;2022-11-25T01:22:05;33.57;;;27.73;;
16593;SDS011;8410;52.532;13.336;2022-11-25T01:24:34;51.17;;;40.77;;
16593;SDS011;8410;52.532;13.336;2022-11-25T01:27:02;32.17;;;27.70;;
16593;SDS011;8410;52.532;13.336;2022-11-25T01:29:30;31.67;;;26.43;;
16593;SDS011;8410;52.532;13.336;2022-11-25T01:31:57;47.40;;;40.57;;
16593;SDS011;8410;52.532;13.336;2022-11-25T01:34:25;35.50;;;29.20;;
16593;SDS011;8410;52.532;13.336;2022-11-25T01:36:57;33.53;;;26.03;;
16593;SDS011;8410;52.532;13.336;2022-11-25T01:39:25;30.73;;;25.70;;
16593;SDS011;8410;52.532;13.336;2022-11-25T01:41:59;33.13;;;27.27;;
16593;SDS011;8410;52.532;13.336;2022-11-25T01:44:28;36.80;;;28.70;;
16593;SDS011;8410;52.532;13.336;2022-11-25T01:47:08;38.67;;;28.87;;
16593;SDS011;8410;52.532;13.336;2022-11-25T01:49:39;36.70;;;29.73;;
16593;SDS011;8410;52.532;13.336;2022-11-25T01:52:12;36.07;;;27.33;;
16593;SDS011;8410;52.532;13.336;2022-11-25T01:54:45;36.83;;;28.57;;
16593;SDS011;8410;52.532;13.336;2022-11-25T01:57:19;35.50;;;28.30;;
16593;SDS011;8410;52.532;13.336;2022-11-25T01:59:51;35.63;;;28.53;;
16593;SDS011;8410;52.532;13.336;2022-11-25T02:02:22;37.23;;;28.07;;
16593;SDS011;8410;52.532;13.336;2022-11-25T02:04:49;40.87;;;28.50;;
16593;SDS011;8410;52.532;13.336;2022-11-25T02:07:18;36.17;;;26.90;;
16593;SDS011;8410;52.532;13.336;2022-11-25T02:09:56;39.60;;;29.07;;
16593;SDS011;8410;52.532;13.336;2022-11-25T02:12:27;39.07;;;28.03;;
16593;SDS011;8410;52.532;13.336;2022-11-25T02:14:55;37.50;;;27.80;;
16593;SDS011;8410;52.532;13.336;2022-11-25T02:17:24;40.27;;;28.83;;
16593;SDS011;8410;52.532;13.336;2022-11-25T02:19:57;40.43;;;30.57;;
16593;SDS011;8410;52.532;13.336;2022-11-25T02:22:30;43.80;;;29.87;;
16593;SDS011;8410;52.532;13.336;2022-11-25T02:25:10;42.07;;;30.50;;
16593;SDS011;8410;52.532;13.336;2022-11-25T02:27:40;46.03;;;33.40;;
16593;SDS011;8410;52.532;13.336;2022-11-25T02:30:10;43.97;;;32.20;;
16593;SDS011;8410;52.532;13.336;2022-11-25T02:32:41;42.87;;;31.93;;
16593;SDS011;8410;52.532;13.336;2022-11-25T02:38:03;41.10;;;29.93;;
16593;SDS011;8410;52.532;13.336;2022-11-25T02:40:35;25.83;;;21.03;;
16593;SDS011;8410;52.532;13.336;2022-11-25T02:43:07;37.43;;;29.67;;
16593;SDS011;8410;52.532;13.336;2022-11-25T02:45:43;40.13;;;29.93;;
16593;SDS011;8410;52.532;13.336;2022-11-25T02:48:15;39.70;;;30.57;;
16593;SDS011;8410;52.532;13.336;2022-11-25T02:50:43;42.70;;;31.03;;
16593;SDS011;8410;52.532;13.336;2022-11-25T02:53:10;41.97;;;30.17;;
16593;SDS011;8410;52.532;13.336;2022-11-25T02:55:39;47.50;;;33.50;;
16593;SDS011;8410;52.532;13.336;2022-11-25T02:58:07;42.53;;;32.30;;
16593;SDS011;8410;52.532;13.336;2022-11-25T03:00:34;42.63;;;32.53;;
16593;SDS011;8410;52.532;13.336;2022-11-25T03:03:02;44.57;;;32.40;;
16593;SDS011;8410;52.532;13.336;2022-11-25T03:05:30;43.57;;;29.97;;
16593;SDS011;8410;52.532;13.336;2022-11-25T03:07:57;42.87;;;30.40;;
16593;SDS011;8410;52.532;13.336;2022-11-25T03:10:25;44.00;;;30.87;;
16593;SDS011;8410;52.532;13.336;2022-11-25T03:12:54;35.67;;;28.87;;
16593;SDS011;8410;52.532;13.336;2022-11-25T03:15:22;39.20;;;27.03;;
16593;SDS011;8410;52.532;13.336;2022-11-25T03:17:49;36.67;;;25.90;;
16593;SDS011;8410;52.532;13.336;2022-11-25T03:20:17;37.50;;;28.13;;
16593;SDS011;8410;52.532;13.336;2022-11-25T03:22:45;36.37;;;24.60;;
16593;SDS011;8410;52.532;13.336;2022-11-25T03:25:13;43.30;;;29.70;;
16593;SDS011;8410;52.532;13.336;2022-11-25T03:27:41;39.63;;;30.33;;
16593;SDS011;8410;52.532;13.336;2022-11-25T03:30:11;37.10;;;29.87;;
16593;SDS011;8410;52.532;13.336;2022-11-25T03:32:40;36.93;;;26.63;;
16593;SDS011;8410;52.532;13.336;2022-11-25T03:35:09;38.13;;;28.33;;
16593;SDS011;8410;52.532;13.336;2022-11-25T03:37:36;37.87;;;29.10;;
16593;SDS011;8410;52.532;13.336;2022-11-25T03:40:05;36.07;;;28.83;;
16593;SDS011;8410;52.532;13.336;2022-11-25T03:42:34;39.43;;;29.77;;
16593;SDS011;8410;52.532;13.336;2022-11-25T03:45:01;40.30;;;29.73;;
16593;SDS011;8410;52.532;13.336;2022-11-25T03:47:30;40.20;;;29.70;;
16593;SDS011;8410;52.532;13.336;2022-11-25T03:49:58;41.77;;;28.93;;
16593;SDS011;8410;52.532;13.336;2022-11-25T03:52:25;36.97;;;29.73;;
16593;SDS011;8410;52.532;13.336;2022-11-25T03:54:52;39.77;;;29.43;;
16593;SDS011;8410;52.532;13.336;2022-11-25T03:57:20;37.57;;;27.73;;
16593;SDS011;8410;52.532;13.336;2022-11-25T03:59:48;39.50;;;29.23;;
16593;SDS011;8410;52.532;13.336;2022-11-25T04:02:15;40.47;;;29.70;;
16593;SDS011;8410;52.532;13.336;2022-11-25T04:04:44;38.87;;;28.47;;
16593;SDS011;8410;52.532;13.336;2022-11-25T04:07:11;39.60;;;28.37;;
16593;SDS011;8410;52.532;13.336;2022-11-25T04:09:39;34.80;;;25.50;;
16593;SDS011;8410;52.532;13.336;2022-11-25T04:12:06;43.40;;;30.43;;
16593;SDS011;8410;52.532;13.336;2022-11-25T04:14:53;41.40;;;29.87;;
16593;SDS011;8410;52.532;13.336;2022-11-25T04:17:20;39.23;;;28.80;;
16593;SDS011;8410;52.532;13.336;2022-11-25T04:19:49;40.80;;;28.57;;
16593;SDS011;8410;52.532;13.336;2022-11-25T04:22:17;34.80;;;28.27;;
16593;SDS011;8410;52.532;13.336;2022-11-25T04:24:44;34.07;;;25.77;;
16593;SDS011;8410;52.532;13.336;2022-11-25T04:27:12;35.07;;;25.47;;
16593;SDS011;8410;52.532;13.336;2022-11-25T04:29:39;36.10;;;23.87;;
16593;SDS011;8410;52.532;13.336;2022-11-25T04:32:06;38.03;;;27.17;;
16593;SDS011;8410;52.532;13.336;2022-11-25T04:34:34;36.93;;;26.93;;
16593;SDS011;8410;52.532;13.336;2022-11-25T04:37:04;30.97;;;24.00;;
16593;SDS011;8410;52.532;13.336;2022-11-25T04:39:31;33.27;;;24.93;;
16593;SDS011;8410;52.532;13.336;2022-11-25T04:41:58;37.57;;;25.27;;
16593;SDS011;8410;52.532;13.336;2022-11-25T04:44:40;36.87;;;25.67;;
16593;SDS011;8410;52.532;13.336;2022-11-25T04:47:26;33.70;;;25.03;;
16593;SDS011;8410;52.532;13.336;2022-11-25T04:49:54;34.43;;;25.33;;
16593;SDS011;8410;52.532;13.336;2022-11-25T04:52:23;39.63;;;27.07;;
16593;SDS011;8410;52.532;13.336;2022-11-25T04:54:51;35.03;;;26.87;;
16593;SDS011;8410;52.532;13.336;2022-11-25T04:57:18;36.67;;;26.90;;
16593;SDS011;8410;52.532;13.336;2022-11-25T04:59:46;38.03;;;28.00;;
16593;SDS011;8410;52.532;13.336;2022-11-25T05:02:14;35.80;;;28.37;;
16593;SDS011;8410;52.532;13.336;2022-11-25T05:04:43;35.30;;;26.47;;
16593;SDS011;8410;52.532;13.336;2022-11-25T05:07:12;30.50;;;24.17;;
16593;SDS011;8410;52.532;13.336;2022-11-25T05:09:41;37.17;;;25.77;;
16593;SDS011;8410;52.532;13.336;2022-11-25T05:12:10;35.87;;;26.40;;
16593;SDS011;8410;52.532;13.336;2022-11-25T05:14:39;39.33;;;29.27;;
16593;SDS011;8410;52.532;13.336;2022-11-25T05:17:06;36.17;;;27.53;;
16593;SDS011;8410;52.532;13.336;2022-11-25T05:19:39;37.13;;;28.23;;
16593;SDS011;8410;52.532;13.336;2022-11-25T05:22:08;34.77;;;26.23;;
16593;SDS011;8410;52.532;13.336;2022-11-25T05:24:36;32.53;;;24.80;;
16593;SDS011;8410;52.532;13.336;2022-11-25T05:27:05;32.63;;;25.93;;
16593;SDS011;8410;52.532;13.336;2022-11-25T05:29:33;32.57;;;25.43;;
16593;SDS011;8410;52.532;13.336;2022-11-25T05:32:01;36.90;;;27.70;;
16593;SDS011;8410;52.532;13.336;2022-11-25T05:34:28;32.60;;;25.77;;
16593;SDS011;8410;52.532;13.336;2022-11-25T05:36:56;27.60;;;21.90;;
16593;SDS011;8410;52.532;13.336;2022-11-25T05:39:23;34.80;;;26.10;;
16593;SDS011;8410;52.532;13.336;2022-11-25T05:41:51;27.60;;;22.33;;
16593;SDS011;8410;52.532;13.336;2022-11-25T05:44:20;31.30;;;25.40;;
16593;SDS011;8410;52.532;13.336;2022-11-25T05:46:48;34.53;;;26.27;;
16593;SDS011;8410;52.532;13.336;2022-11-25T05:49:16;30.87;;;24.40;;
16593;SDS011;8410;52.532;13.336;2022-11-25T05:51:44;36.33;;;25.90;;
16593;SDS011;8410;52.532;13.336;2022-11-25T05:54:12;33.10;;;26.33;;
16593;SDS011;8410;52.532;13.336;2022-11-25T05:56:39;35.70;;;27.23;;
16593;SDS011;8410;52.532;13.336;2022-11-25T05:59:07;33.97;;;27.43;;
16593;SDS011;8410;52.532;13.336;2022-11-25T06:01:36;35.53;;;25.73;;
16593;SDS011;8410;52.532;13.336;2022-11-25T06:04:03;32.53;;;24.73;;
16593;SDS011;8410;52.532;13.336;2022-11-25T06:06:31;37.30;;;24.07;;
16593;SDS011;8410;52.532;13.336;2022-11-25T06:08:58;33.80;;;24.33;;
16593;SDS011;8410;52.532;13.336;2022-11-25T06:11:26;35.73;;;24.37;;
16593;SDS011;8410;52.532;13.336;2022-11-25T06:13:55;31.53;;;26.07;;
16593;SDS011;8410;52.532;13.336;2022-11-25T06:16:23;32.23;;;24.97;;
16593;SDS011;8410;52.532;13.336;2022-11-25T06:18:53;35.87;;;25.20;;
16593;SDS011;8410;52.532;13.336;2022-11-25T06:21:20;31.33;;;25.73;;
16593;SDS011;8410;52.532;13.336;2022-11-25T06:23:48;33.30;;;25.87;;
16593;SDS011;8410;52.532;13.336;2022-11-25T06:26:16;34.30;;;27.90;;
16593;SDS011;8410;52.532;13.336;2022-11-25T06:28:45;37.20;;;26.83;;
16593;SDS011;8410;52.532;13.336;2022-11-25T06:31:14;38.13;;;26.30;;
16593;SDS011;8410;52.532;13.336;2022-11-25T06:33:45;37.00;;;26.53;;
16593;SDS011;8410;52.532;13.336;2022-11-25T06:36:14;43.93;;;31.80;;
16593;SDS011;8410;52.532;13.336;2022-11-25T06:38:43;42.77;;;30.77;;
16593;SDS011;8410;52.532;13.336;2022-11-25T06:41:11;44.20;;;31.87;;
16593;SDS011;8410;52.532;13.336;2022-11-25T06:43:39;42.73;;;29.80;;
16593;SDS011;8410;52.532;13.336;2022-11-25T06:46:07;39.40;;;29.67;;
16593;SDS011;8410;52.532;13.336;2022-11-25T06:48:36;42.57;;;29.20;;
16593;SDS011;8410;52.532;13.336;2022-11-25T06:51:05;40.00;;;28.23;;
16593;SDS011;8410;52.532;13.336;2022-11-25T06:53:35;39.90;;;29.60;;
16593;SDS011;8410;52.532;13.336;2022-11-25T06:56:04;46.30;;;32.53;;
16593;SDS011;8410;52.532;13.336;2022-11-25T06:58:33;40.80;;;30.57;;
16593;SDS011;8410;52.532;13.336;2022-11-25T07:01:03;46.80;;;32.60;;
16593;SDS011;8410;52.532;13.336;2022-11-25T07:03:32;49.67;;;33.80;;
16593;SDS011;8410;52.532;13.336;2022-11-25T07:06:00;44.80;;;30.90;;
16593;SDS011;8410;52.532;13.336;2022-11-25T07:08:29;48.70;;;33.77;;
16593;SDS011;8410;52.532;13.336;2022-11-25T07:11:04;43.23;;;31.43;;
16593;SDS011;8410;52.532;13.336;2022-11-25T07:13:33;48.33;;;34.40;;
16593;SDS011;8410;52.532;13.336;2022-11-25T07:16:01;51.07;;;32.53;;
16593;SDS011;8410;52.532;13.336;2022-11-25T07:18:29;39.20;;;29.83;;
16593;SDS011;8410;52.532;13.336;2022-11-25T07:21:01;47.87;;;32.83;;
16593;SDS011;8410;52.532;13.336;2022-11-25T07:23:29;44.03;;;31.13;;
16593;SDS011;8410;52.532;13.336;2022-11-25T07:26:00;46.60;;;31.97;;
16593;SDS011;8410;52.532;13.336;2022-11-25T07:28:30;45.67;;;31.13;;
16593;SDS011;8410;52.532;13.336;2022-11-25T07:31:02;39.10;;;30.47;;
16593;SDS011;8410;52.532;13.336;2022-11-25T07:33:51;41.03;;;30.03;;
16593;SDS011;8410;52.532;13.336;2022-11-25T07:36:19;49.27;;;31.90;;
16593;SDS011;8410;52.532;13.336;2022-11-25T07:38:47;36.40;;;25.97;;
16593;SDS011;8410;52.532;13.336;2022-11-25T07:41:15;42.53;;;30.60;;
16593;SDS011;8410;52.532;13.336;2022-11-25T07:43:45;38.37;;;27.43;;
16593;SDS011;8410;52.532;13.336;2022-11-25T07:46:14;37.47;;;27.03;;
16593;SDS011;8410;52.532;13.336;2022-11-25T07:48:50;40.27;;;28.70;;
16593;SDS011;8410;52.532;13.336;2022-11-25T07:51:19;37.37;;;28.57;;
16593;SDS011;8410;52.532;13.336;2022-11-25T07:53:48;46.57;;;30.43;;
16593;SDS011;8410;52.532;13.336;2022-11-25T07:56:16;44.27;;;31.53;;
16593;SDS011;8410;52.532;13.336;2022-11-25T07:58:46;40.00;;;29.60;;
16593;SDS011;8410;52.532;13.336;2022-11-25T08:01:14;37.43;;;26.53;;
16593;SDS011;8410;52.532;13.336;2022-11-25T08:03:44;33.97;;;25.23;;
16593;SDS011;8410;52.532;13.336;2022-11-25T08:06:13;29.60;;;24.53;;
16593;SDS011;8410;52.532;13.336;2022-11-25T08:08:43;33.53;;;25.23;;
16593;SDS011;8410;52.532;13.336;2022-11-25T08:11:12;30.03;;;24.27;;
16593;SDS011;8410;52.532;13.336;2022-11-25T08:13:41;35.80;;;26.73;;
16593;SDS011;8410;52.532;13.336;2022-11-25T08:16:11;35.80;;;27.20;;
16593;SDS011;8410;52.532;13.336;2022-11-25T08:18:40;34.50;;;28.30;;
16593;SDS011;8410;52.532;13.336;2022-11-25T08:21:08;35.53;;;27.03;;
16593;SDS011;8410;52.532;13.336;2022-11-25T08:23:37;35.97;;;26.73;;
16593;SDS011;8410;52.532;13.336;2022-11-25T08:26:07;35.73;;;27.43;;
16593;SDS011;8410;52.532;13.336;2022-11-25T08:28:36;36.20;;;27.40;;
16593;SDS011;8410;52.532;13.336;2022-11-25T08:31:06;32.03;;;26.80;;
16593;SDS011;8410;52.532;13.336;2022-11-25T08:33:37;32.97;;;26.37;;
16593;SDS011;8410;52.532;13.336;2022-11-25T08:36:05;39.10;;;28.87;;
16593;SDS011;8410;52.532;13.336;2022-11-25T08:38:34;34.13;;;27.20;;
16593;SDS011;8410;52.532;13.336;2022-11-25T08:41:02;29.10;;;25.83;;
16593;SDS011;8410;52.532;13.336;2022-11-25T08:43:29;32.40;;;27.53;;
16593;SDS011;8410;52.532;13.336;2022-11-25T08:45:57;32.30;;;24.90;;
16593;SDS011;8410;52.532;13.336;2022-11-25T08:48:24;34.37;;;26.03;;
16593;SDS011;8410;52.532;13.336;2022-11-25T08:50:53;43.87;;;35.23;;
16593;SDS011;8410;52.532;13.336;2022-11-25T08:53:21;35.93;;;26.97;;
16593;SDS011;8410;52.532;13.336;2022-11-25T08:55:48;34.83;;;25.47;;
16593;SDS011;8410;52.532;13.336;2022-11-25T08:58:16;31.17;;;23.97;;
16593;SDS011;8410;52.532;13.336;2022-11-25T09:00:43;30.67;;;23.20;;
16593;SDS011;8410;52.532;13.336;2022-11-25T09:03:11;35.67;;;24.43;;
16593;SDS011;8410;52.532;13.336;2022-11-25T09:05:39;32.73;;;26.13;;
16593;SDS011;8410;52.532;13.336;2022-11-25T09:08:10;31.63;;;23.57;;
16593;SDS011;8410;52.532;13.336;2022-11-25T09:10:38;29.03;;;24.27;;
16593;SDS011;8410;52.532;13.336;2022-11-25T09:13:06;30.67;;;23.50;;
16593;SDS011;8410;52.532;13.336;2022-11-25T09:15:35;30.07;;;22.93;;
16593;SDS011;8410;52.532;13.336;2022-11-25T09:18:03;28.13;;;23.40;;
16593;SDS011;8410;52.532;13.336;2022-11-25T09:20:33;26.10;;;22.50;;
16593;SDS011;8410;52.532;13.336;2022-11-25T09:23:02;30.47;;;22.03;;
16593;SDS011;8410;52.532;13.336;2022-11-25T09:25:32;27.07;;;21.80;;
16593;SDS011;8410;52.532;13.336;2022-11-25T09:27:59;28.93;;;21.40;;
16593;SDS011;8410;52.532;13.336;2022-11-25T09:30:27;27.10;;;20.80;;
16593;SDS011;8410;52.532;13.336;2022-11-25T09:32:55;26.87;;;20.87;;
16593;SDS011;8410;52.532;13.336;2022-11-25T09:35:23;29.33;;;23.77;;
16593;SDS011;8410;52.532;13.336;2022-11-25T09:37:52;27.10;;;22.33;;
16593;SDS011;8410;52.532;13.336;2022-11-25T09:40:20;32.33;;;24.03;;
16593;SDS011;8410;52.532;13.336;2022-11-25T09:42:55;32.03;;;24.63;;
16593;SDS011;8410;52.532;13.336;2022-11-25T09:45:46;31.50;;;24.53;;
16593;SDS011;8410;52.532;13.336;2022-11-25T09:48:50;31.73;;;23.83;;
16593;SDS011;8410;52.532;13.336;2022-11-25T09:51:26;27.33;;;20.83;;
16593;SDS011;8410;52.532;13.336;2022-11-25T09:54:02;29.03;;;22.77;;
16593;SDS011;8410;52.532;13.336;2022-11-25T09:56:37;31.67;;;24.83;;
16593;SDS011;8410;52.532;13.336;2022-11-25T09:59:12;29.77;;;23.53;;
16593;SDS011;8410;52.532;13.336;2022-11-25T10:01:46;28.50;;;23.10;;
16593;SDS011;8410;52.532;13.336;2022-11-25T10:04:17;30.60;;;23.97;;
16593;SDS011;8410;52.532;13.336;2022-11-25T10:06:52;30.90;;;23.80;;
16593;SDS011;8410;52.532;13.336;2022-11-25T10:09:24;30.43;;;23.70;;
16593;SDS011;8410;52.532;13.336;2022-11-25T10:11:54;29.93;;;23.80;;
16593;SDS011;8410;52.532;13.336;2022-11-25T10:14:27;33.63;;;25.87;;
16593;SDS011;8410;52.532;13.336;2022-11-25T10:17:00;33.07;;;27.10;;
16593;SDS011;8410;52.532;13.336;2022-11-25T10:19:38;34.17;;;26.03;;
16593;SDS011;8410;52.532;13.336;2022-11-25T10:22:16;30.60;;;24.40;;
16593;SDS011;8410;52.532;13.336;2022-11-25T10:24:49;28.27;;;23.43;;
16593;SDS011;8410;52.532;13.336;2022-11-25T10:27:21;30.60;;;23.70;;
16593;SDS011;8410;52.532;13.336;2022-11-25T10:29:55;28.83;;;21.73;;
16593;SDS011;8410;52.532;13.336;2022-11-25T10:32:30;30.27;;;24.53;;
16593;SDS011;8410;52.532;13.336;2022-11-25T10:35:04;28.07;;;22.97;;
16593;SDS011;8410;52.532;13.336;2022-11-25T10:37:38;27.60;;;23.53;;
16593;SDS011;8410;52.532;13.336;2022-11-25T10:40:12;29.67;;;24.07;;
16593;SDS011;8410;52.532;13.336;2022-11-25T10:42:40;33.70;;;25.17;;
16593;SDS011;8410;52.532;13.336;2022-11-25T10:45:10;30.73;;;26.37;;
16593;SDS011;8410;52.532;13.336;2022-11-25T10:47:45;35.83;;;26.27;;
16593;SDS011;8410;52.532;13.336;2022-11-25T10:50:28;30.80;;;25.07;;
16593;SDS011;8410;52.532;13.336;2022-11-25T10:53:01;35.30;;;26.37;;
16593;SDS011;8410;52.532;13.336;2022-11-25T10:55:36;37.87;;;26.33;;
16593;SDS011;8410;52.532;13.336;2022-11-25T10:58:19;32.27;;;25.40;;
16593;SDS011;8410;52.532;13.336;2022-11-25T11:01:01;28.20;;;24.57;;
16593;SDS011;8410;52.532;13.336;2022-11-25T11:03:33;29.30;;;24.50;;
16593;SDS011;8410;52.532;13.336;2022-11-25T11:06:01;30.10;;;23.90;;
16593;SDS011;8410;52.532;13.336;2022-11-25T11:08:35;30.97;;;24.50;;
16593;SDS011;8410;52.532;13.336;2022-11-25T11:11:08;28.60;;;23.60;;
16593;SDS011;8410;52.532;13.336;2022-11-25T11:13:44;29.33;;;24.03;;
16593;SDS011;8410;52.532;13.336;2022-11-25T11:16:25;35.63;;;25.93;;
16593;SDS011;8410;52.532;13.336;2022-11-25T11:18:55;32.93;;;26.13;;
16593;SDS011;8410;52.532;13.336;2022-11-25T11:21:24;33.97;;;26.50;;
16593;SDS011;8410;52.532;13.336;2022-11-25T11:23:56;34.63;;;24.90;;
16593;SDS011;8410;52.532;13.336;2022-11-25T11:26:25;30.70;;;24.90;;
16593;SDS011;8410;52.532;13.336;2022-11-25T11:28:58;27.40;;;22.44;;
16593;SDS011;8410;52.532;13.336;2022-11-25T11:31:31;29.23;;;25.10;;
16593;SDS011;8410;52.532;13.336;2022-11-25T11:34:04;29.00;;;24.67;;
16593;SDS011;8410;52.532;13.336;2022-11-25T11:36:48;25.37;;;21.60;;
16593;SDS011;8410;52.532;13.336;2022-11-25T11:39:34;26.77;;;23.37;;
16593;SDS011;8410;52.532;13.336;2022-11-25T11:42:18;26.70;;;23.27;;
16593;SDS011;8410;52.532;13.336;2022-11-25T11:44:58;32.00;;;26.57;;
16593;SDS011;8410;52.532;13.336;2022-11-25T11:47:41;33.73;;;27.60;;
16593;SDS011;8410;52.532;13.336;2022-11-25T11:50:24;28.37;;;23.00;;
16593;SDS011;8410;52.532;13.336;2022-11-25T11:52:54;25.17;;;20.20;;
16593;SDS011;8410;52.532;13.336;2022-11-25T11:55:27;26.23;;;22.73;;
16593;SDS011;8410;52.532;13.336;2022-11-25T11:58:11;32.53;;;27.67;;
16593;SDS011;8410;52.532;13.336;2022-11-25T12:00:44;35.17;;;26.83;;
16593;SDS011;8410;52.532;13.336;2022-11-25T12:03:19;36.53;;;30.67;;
16593;SDS011;8410;52.532;13.336;2022-11-25T12:05:50;36.37;;;30.80;;
16593;SDS011;8410;52.532;13.336;2022-11-25T12:08:22;35.13;;;27.03;;
16593;SDS011;8410;52.532;13.336;2022-11-25T12:10:57;39.30;;;30.50;;
16593;SDS011;8410;52.532;13.336;2022-11-25T12:13:30;39.07;;;31.77;;
16593;SDS011;8410;52.532;13.336;2022-11-25T12:16:04;40.43;;;32.30;;
16593;SDS011;8410;52.532;13.336;2022-11-25T12:18:40;40.87;;;32.80;;
16593;SDS011;8410;52.532;13.336;2022-11-25T12:21:17;39.80;;;32.17;;
16593;SDS011;8410;52.532;13.336;2022-11-25T12:23:57;40.43;;;32.93;;
16593;SDS011;8410;52.532;13.336;2022-11-25T12:26:32;36.63;;;32.03;;
16593;SDS011;8410;52.532;13.336;2022-11-25T12:29:06;45.83;;;33.77;;
16593;SDS011;8410;52.532;13.336;2022-11-25T12:31:40;40.83;;;33.40;;
16593;SDS011;8410;52.532;13.336;2022-11-25T12:34:15;36.03;;;29.10;;
16593;SDS011;8410;52.532;13.336;2022-11-25T12:36:46;35.90;;;30.53;;
16593;SDS011;8410;52.532;13.336;2022-11-25T12:39:17;42.57;;;34.87;;
16593;SDS011;8410;52.532;13.336;2022-11-25T12:41:50;43.57;;;32.60;;
16593;SDS011;8410;52.532;13.336;2022-11-25T12:44:22;43.30;;;33.60;;
16593;SDS011;8410;52.532;13.336;2022-11-25T12:46:56;38.40;;;33.50;;
16593;SDS011;8410;52.532;13.336;2022-11-25T12:49:27;39.33;;;32.63;;
16593;SDS011;8410;52.532;13.336;2022-11-25T12:55:00;40.50;;;31.43;;
16593;SDS011;8410;52.532;13.336;2022-11-25T12:57:54;39.27;;;32.23;;
16593;SDS011;8410;52.532;13.336;2022-11-25T13:00:41;37.87;;;32.57;;
16593;SDS011;8410;52.532;13.336;2022-11-25T13:03:29;36.90;;;29.87;;
16593;SDS011;8410;52.532;13.336;2022-11-25T13:06:12;41.80;;;32.53;;
16593;SDS011;8410;52.532;13.336;2022-11-25T13:08:52;36.00;;;30.73;;
16593;SDS011;8410;52.532;13.336;2022-11-25T13:11:37;31.20;;;26.70;;
16593;SDS011;8410;52.532;13.336;2022-11-25T13:14:23;34.20;;;29.80;;
16593;SDS011;8410;52.532;13.336;2022-11-25T13:16:54;38.30;;;30.47;;
16593;SDS011;8410;52.532;13.336;2022-11-25T13:19:25;34.47;;;29.30;;
16593;SDS011;8410;52.532;13.336;2022-11-25T13:21:58;37.23;;;29.03;;
16593;SDS011;8410;52.532;13.336;2022-11-25T13:24:29;37.00;;;32.83;;
16593;SDS011;8410;52.532;13.336;2022-11-25T13:26:59;40.37;;;33.70;;
16593;SDS011;8410;52.532;13.336;2022-11-25T13:32:30;44.40;;;33.80;;
16593;SDS011;8410;52.532;13.336;2022-11-25T13:38:06;46.70;;;35.47;;
16593;SDS011;8410;52.532;13.336;2022-11-25T13:40:56;52.20;;;35.37;;
16593;SDS011;8410;52.532;13.336;2022-11-25T13:43:25;53.67;;;37.23;;
16593;SDS011;8410;52.532;13.336;2022-11-25T13:45:53;56.37;;;38.47;;
16593;SDS011;8410;52.532;13.336;2022-11-25T13:48:22;52.80;;;39.27;;
16593;SDS011;8410;52.532;13.336;2022-11-25T13:53:45;54.97;;;35.63;;
16593;SDS011;8410;52.532;13.336;2022-11-25T13:56:23;55.77;;;39.50;;
16593;SDS011;8410;52.532;13.336;2022-11-25T14:04:52;45.37;;;33.87;;
16593;SDS011;8410;52.532;13.336;2022-11-25T14:07:26;47.77;;;35.13;;
16593;SDS011;8410;52.532;13.336;2022-11-25T14:10:09;51.00;;;35.57;;
16593;SDS011;8410;52.532;13.336;2022-11-25T14:12:56;42.57;;;31.13;;
16593;SDS011;8410;52.532;13.336;2022-11-25T14:15:41;47.07;;;35.83;;
16593;SDS011;8410;52.532;13.336;2022-11-25T14:21:41;54.60;;;37.37;;
16593;SDS011;8410;52.532;13.336;2022-11-25T14:24:22;53.47;;;35.63;;
16593;SDS011;8410;52.532;13.336;2022-11-25T14:26:57;47.10;;;32.83;;
16593;SDS011;8410;52.532;13.336;2022-11-25T14:29:26;47.13;;;33.97;;
16593;SDS011;8410;52.532;13.336;2022-11-25T14:31:57;44.00;;;34.40;;
16593;SDS011;8410;52.532;13.336;2022-11-25T14:34:28;45.87;;;30.57;;
16593;SDS011;8410;52.532;13.336;2022-11-25T14:37:00;45.97;;;32.80;;
16593;SDS011;8410;52.532;13.336;2022-11-25T14:39:36;53.10;;;36.77;;
16593;SDS011;8410;52.532;13.336;2022-11-25T14:42:09;45.47;;;31.53;;
16593;SDS011;8410;52.532;13.336;2022-11-25T14:44:43;52.83;;;37.03;;
16593;SDS011;8410;52.532;13.336;2022-11-25T14:47:14;42.63;;;30.93;;
16593;SDS011;8410;52.532;13.336;2022-11-25T14:49:42;43.80;;;30.27;;
16593;SDS011;8410;52.532;13.336;2022-11-25T14:52:25;41.33;;;29.63;;
16593;SDS011;8410;52.532;13.336;2022-11-25T14:54:54;43.17;;;30.60;;
16593;SDS011;8410;52.532;13.336;2022-11-25T14:57:25;41.87;;;30.10;;
16593;SDS011;8410;52.532;13.336;2022-11-25T14:59:56;39.43;;;29.57;;
16593;SDS011;8410;52.532;13.336;2022-11-25T15:02:29;37.43;;;26.43;;
16593;SDS011;8410;52.532;13.336;2022-11-25T15:05:07;37.97;;;27.00;;
16593;SDS011;8410;52.532;13.336;2022-11-25T15:07:42;44.90;;;29.53;;